Time;durP1;ratioP1;P1;durP2;ratioP2;P2;SDS_P1;SDS_P2;PMS_P1;PMS_P2;Temp;Humidity;BMP_temperature;BMP_pressure;BME280_temperature;BME280_humidity;BME280_pressure;Samples;Min_cycle;Max_cycle;Signal;HPM_P1;HPM_P2
2022/10/01 00:00:56;;;;;;;;;;;11.40;99.90;;;;;;5037227;28;20204;-59
2022/10/01 00:03:23;;;;;;;;;;;11.40;99.90;;;;;;5037184;28;19913;-58
2022/10/01 00:06:03;;;;;;;;;;;11.30;99.90;;;;;;5037178;28;19909;-60
2022/10/01 00:08:29;;;;;;;;;;;11.30;99.90;;;;;;5036410;28;20213;-61
2022/10/01 00:10:55;;;;;;;;;;;11.40;99.90;;;;;;5037136;28;19959;-59
2022/10/01 00:13:21;;;;;;;;;;;11.30;99.90;;;;;;5037170;28;20236;-60
2022/10/01 00:15:47;;;;;;;;;;;11.30;99.90;;;;;;5036970;28;19921;-58
2022/10/01 00:18:13;;;;;;;;;;;11.30;99.90;;;;;;5037066;28;19971;-59
2022/10/01 00:20:42;;;;;;;;;;;11.30;99.90;;;;;;5036366;28;19924;-60
2022/10/01 00:23:08;;;;;;;;;;;11.30;99.90;;;;;;5040631;28;20003;-60
2022/10/01 00:25:34;;;;;;;;;;;11.40;99.90;;;;;;5040961;28;19909;-60
2022/10/01 00:28:00;;;;;;;;;;;11.40;99.90;;;;;;5040099;28;19971;-60
2022/10/01 00:30:25;;;;;;;;;;;11.40;99.90;;;;;;5040753;28;20027;-59
2022/10/01 00:32:54;;;;;;;;;;;11.40;99.90;;;;;;5041364;28;19913;-63
2022/10/01 00:35:21;;;;;;;;;;;11.40;99.90;;;;;;5039873;28;19920;-59
2022/10/01 00:37:49;;;;;;;;;;;11.40;99.90;;;;;;5040701;28;19912;-59
2022/10/01 00:40:15;;;;;;;;;;;11.30;99.90;;;;;;5040065;28;19913;-55
2022/10/01 00:42:42;;;;;;;;;;;11.40;99.90;;;;;;5040541;28;19974;-57
2022/10/01 00:45:10;;;;;;;;;;;11.30;99.90;;;;;;5040476;28;20007;-55
2022/10/01 00:47:42;;;;;;;;;;;11.20;99.90;;;;;;5040320;28;19971;-59
2022/10/01 00:50:10;;;;;;;;;;;11.20;99.90;;;;;;5039720;28;19908;-60
2022/10/01 00:52:38;;;;;;;;;;;11.20;99.90;;;;;;5040366;28;19999;-59
2022/10/01 00:55:04;;;;;;;;;;;11.30;99.90;;;;;;5040260;28;19920;-60
2022/10/01 00:57:30;;;;;;;;;;;11.30;99.90;;;;;;5039763;28;19920;-59
2022/10/01 00:59:56;;;;;;;;;;;11.20;99.90;;;;;;5039498;28;19912;-58
2022/10/01 01:02:22;;;;;;;;;;;11.20;99.90;;;;;;5040233;28;19967;-59
2022/10/01 01:04:48;;;;;;;;;;;11.20;99.90;;;;;;5040052;28;19956;-57
2022/10/01 01:07:14;;;;;;;;;;;11.30;99.90;;;;;;5040691;28;20284;-59
2022/10/01 01:09:45;;;;;;;;;;;11.20;99.90;;;;;;5040042;28;19913;-59
2022/10/01 01:12:29;;;;;;;;;;;11.30;99.90;;;;;;5040546;28;19913;-60
2022/10/01 01:15:07;;;;;;;;;;;11.20;99.90;;;;;;5039895;28;20277;-59
2022/10/01 01:17:36;;;;;;;;;;;11.30;99.90;;;;;;5039957;28;19919;-59
2022/10/01 01:20:23;;;;;;;;;;;11.30;99.90;;;;;;5039829;28;19909;-61
2022/10/01 01:23:11;;;;;;;;;;;11.30;99.90;;;;;;5039154;28;19944;-60
2022/10/01 01:25:44;;;;;;;;;;;11.30;99.90;;;;;;5039768;28;19916;-60
2022/10/01 01:28:30;;;;;;;;;;;11.30;99.90;;;;;;5039886;28;19909;-60
2022/10/01 01:30:58;;;;;;;;;;;11.30;99.90;;;;;;5038950;28;20292;-56
2022/10/01 01:33:26;;;;;;;;;;;11.30;99.90;;;;;;5038396;28;19919;-59
2022/10/01 01:35:54;;;;;;;;;;;11.30;99.90;;;;;;5039482;28;20020;-60
2022/10/01 01:38:27;;;;;;;;;;;11.40;99.90;;;;;;5039582;28;19953;-60
2022/10/01 01:40:56;;;;;;;;;;;11.30;99.90;;;;;;5039517;28;20192;-62
2022/10/01 01:43:28;;;;;;;;;;;11.40;99.90;;;;;;5039524;28;19909;-61
2022/10/01 01:45:54;;;;;;;;;;;11.40;99.90;;;;;;5039443;28;19909;-56
2022/10/01 01:48:22;;;;;;;;;;;11.40;99.90;;;;;;5038436;28;19927;-59
2022/10/01 01:50:56;;;;;;;;;;;11.40;99.90;;;;;;5038630;28;19963;-58
2022/10/01 01:53:22;;;;;;;;;;;11.40;99.90;;;;;;5039348;28;19962;-59
2022/10/01 01:55:48;;;;;;;;;;;11.40;99.90;;;;;;5039165;28;20001;-58
2022/10/01 01:58:15;;;;;;;;;;;11.40;99.90;;;;;;5040049;28;19957;-62
2022/10/01 02:00:41;;;;;;;;;;;11.40;99.90;;;;;;5039107;28;19963;-58
2022/10/01 02:03:08;;;;;;;;;;;11.50;99.90;;;;;;5038424;28;19921;-58
2022/10/01 02:05:42;;;;;;;;;;;11.50;99.90;;;;;;5038972;28;19917;-58
2022/10/01 02:08:11;;;;;;;;;;;11.50;99.90;;;;;;5039647;28;20055;-58
2022/10/01 02:10:43;;;;;;;;;;;11.50;99.90;;;;;;5038933;28;20007;-59
2022/10/01 02:13:29;;;;;;;;;;;11.50;99.90;;;;;;5038859;28;20054;-58
2022/10/01 02:16:08;;;;;;;;;;;11.60;99.90;;;;;;5018053;28;19913;-59
2022/10/01 02:18:40;;;;;;;;;;;11.60;99.90;;;;;;5038133;28;20020;-59
2022/10/01 02:21:09;;;;;;;;;;;11.60;99.90;;;;;;5038876;28;19920;-60
2022/10/01 02:23:57;;;;;;;;;;;11.60;99.90;;;;;;5038713;28;19916;-59
2022/10/01 02:26:23;;;;;;;;;;;11.70;99.90;;;;;;5038621;28;20055;-61
2022/10/01 02:28:50;;;;;;;;;;;11.70;99.90;;;;;;5038602;28;19909;-62
2022/10/01 02:31:16;;;;;;;;;;;11.70;99.90;;;;;;5038569;28;19917;-59
2022/10/01 02:33:43;;;;;;;;;;;11.80;99.90;;;;;;5038489;28;19975;-61
2022/10/01 02:36:10;;;;;;;;;;;11.80;99.90;;;;;;5038376;28;19952;-63
2022/10/01 02:38:37;;;;;;;;;;;11.80;99.90;;;;;;5038067;28;19932;-59
2022/10/01 02:41:04;;;;;;;;;;;11.90;99.90;;;;;;5054369;28;19913;-59
2022/10/01 02:43:33;;;;;;;;;;;11.90;99.90;;;;;;5021387;28;20258;-64
2022/10/01 02:46:05;;;;;;;;;;;12.00;99.90;;;;;;5037915;28;20003;-61
2022/10/01 02:48:31;;;;;;;;;;;12.10;99.90;;;;;;5037660;28;19980;-60
2022/10/01 02:51:05;;;;;;;;;;;12.10;99.90;;;;;;5038180;28;19925;-61
2022/10/01 02:53:33;;;;;;;;;;;12.00;99.90;;;;;;5038184;28;20000;-61
2022/10/01 02:56:01;;;;;;;;;;;12.00;99.90;;;;;;5037333;28;19912;-60
2022/10/01 02:58:27;;;;;;;;;;;12.10;99.90;;;;;;5038038;28;20189;-59
2022/10/01 03:00:52;;;;;;;;;;;12.10;99.90;;;;;;5037263;28;19913;-64
2022/10/01 03:03:18;;;;;;;;;;;12.20;99.90;;;;;;5037970;28;19976;-61
2022/10/01 03:05:44;;;;;;;;;;;12.20;99.90;;;;;;5037901;28;19968;-66
2022/10/01 03:08:10;;;;;;;;;;;12.20;99.90;;;;;;5053713;28;19920;-61
2022/10/01 03:10:35;;;;;;;;;;;12.30;99.90;;;;;;5037379;28;19913;-62
2022/10/01 03:13:01;;;;;;;;;;;12.20;99.90;;;;;;5037878;28;19920;-61
2022/10/01 03:15:27;;;;;;;;;;;12.20;99.90;;;;;;5020482;28;19928;-59
2022/10/01 03:17:53;;;;;;;;;;;12.20;99.90;;;;;;5037770;28;19913;-60
2022/10/01 03:20:19;;;;;;;;;;;12.20;99.90;;;;;;5037793;28;19909;-60
2022/10/01 03:22:45;;;;;;;;;;;12.30;99.90;;;;;;5037777;28;19920;-61
2022/10/01 03:25:11;;;;;;;;;;;12.30;99.90;;;;;;5037626;28;19913;-61
2022/10/01 03:27:37;;;;;;;;;;;12.30;99.90;;;;;;5037592;28;19968;-59
2022/10/01 03:30:03;;;;;;;;;;;12.20;99.90;;;;;;5037717;28;19913;-60
2022/10/01 03:32:28;;;;;;;;;;;12.20;99.90;;;;;;5037492;28;19978;-61
2022/10/01 03:34:54;;;;;;;;;;;12.30;99.90;;;;;;5037364;28;20011;-58
2022/10/01 03:37:20;;;;;;;;;;;12.30;99.90;;;;;;5037480;28;19913;-60
2022/10/01 03:39:45;;;;;;;;;;;12.30;99.90;;;;;;5036741;28;19960;-60
2022/10/01 03:42:11;;;;;;;;;;;12.30;99.90;;;;;;5036755;28;20273;-61
2022/10/01 03:44:37;;;;;;;;;;;12.30;99.90;;;;;;5037334;28;19963;-59
2022/10/01 03:47:02;;;;;;;;;;;12.30;99.90;;;;;;5036557;28;19913;-60
2022/10/01 03:49:28;;;;;;;;;;;12.30;99.90;;;;;;5037231;28;19917;-59
2022/10/01 03:51:54;;;;;;;;;;;12.40;99.90;;;;;;5036553;28;19920;-63
2022/10/01 03:54:20;;;;;;;;;;;12.40;99.90;;;;;;5037581;28;19924;-61
2022/10/01 03:56:46;;;;;;;;;;;12.50;99.90;;;;;;5038113;28;19999;-61
2022/10/01 03:59:12;;;;;;;;;;;12.60;99.90;;;;;;5041365;28;20058;-59
2022/10/01 04:01:37;;;;;;;;;;;12.70;99.90;;;;;;5041279;28;20011;-58
2022/10/01 04:04:04;;;;;;;;;;;12.80;99.90;;;;;;5040598;28;19919;-59
2022/10/01 04:06:29;;;;;;;;;;;12.80;99.90;;;;;;5041525;28;20300;-59
2022/10/01 04:08:55;;;;;;;;;;;12.80;99.90;;;;;;5041491;28;19913;-58
2022/10/01 04:11:21;;;;;;;;;;;12.80;99.90;;;;;;5041100;28;19917;-60
2022/10/01 04:13:47;;;;;;;;;;;12.90;99.90;;;;;;5040323;28;19909;-60
2022/10/01 04:16:12;;;;;;;;;;;13.00;99.90;;;;;;5041133;28;20264;-59
2022/10/01 04:18:38;;;;;;;;;;;13.10;99.90;;;;;;5041197;28;19917;-58
2022/10/01 04:21:03;;;;;;;;;;;13.10;99.90;;;;;;5040996;28;19976;-63
2022/10/01 04:23:29;;;;;;;;;;;13.10;99.90;;;;;;5056730;28;19913;-59
2022/10/01 04:26:01;;;;;;;;;;;13.30;99.90;;;;;;5056639;28;19913;-68
2022/10/01 04:28:28;;;;;;;;;;;13.30;99.90;;;;;;5041127;28;19909;-63
2022/10/01 04:31:23;;;;;;;;;;;13.30;99.90;;;;;;5040766;28;19905;-66
2022/10/01 04:33:39;;;;;;;;;;;13.30;99.90;;;;;;5026150;28;19917;-69
2022/10/01 04:36:05;;;;;;;;;;;13.40;99.90;;;;;;5039945;28;19947;-61
2022/10/01 04:38:31;;;;;;;;;;;13.50;99.90;;;;;;5040758;28;19909;-63
2022/10/01 04:40:56;;;;;;;;;;;13.50;99.90;;;;;;5040575;28;20173;-70
2022/10/01 04:43:22;;;;;;;;;;;13.50;99.90;;;;;;5040556;28;19983;-64
2022/10/01 04:45:47;;;;;;;;;;;13.40;99.90;;;;;;5040785;28;20336;-64
2022/10/01 04:48:13;;;;;;;;;;;13.40;99.90;;;;;;5040433;28;19921;-66
2022/10/01 04:50:39;;;;;;;;;;;13.50;99.90;;;;;;5040394;28;20008;-61
2022/10/01 04:53:04;;;;;;;;;;;13.50;99.90;;;;;;5040438;28;19909;-63
2022/10/01 04:55:30;;;;;;;;;;;13.50;99.90;;;;;;5040231;28;19928;-64
2022/10/01 04:57:56;;;;;;;;;;;13.40;99.90;;;;;;5040264;28;19917;-67
2022/10/01 05:00:24;;;;;;;;;;;13.40;99.90;;;;;;5039462;28;20277;-62
2022/10/01 05:02:50;;;;;;;;;;;13.40;99.90;;;;;;5040182;28;19913;-61
2022/10/01 05:05:16;;;;;;;;;;;13.40;99.90;;;;;;5040290;28;20197;-63
2022/10/01 05:07:42;;;;;;;;;;;13.50;99.90;;;;;;5040460;28;19909;-59
2022/10/01 05:10:10;;;;;;;;;;;13.50;99.90;;;;;;5040137;28;19920;-59
2022/10/01 05:12:36;;;;;;;;;;;13.40;99.90;;;;;;5040650;28;19913;-66
2022/10/01 05:15:02;;;;;;;;;;;13.40;99.90;;;;;;5039894;28;19916;-62
2022/10/01 05:17:31;;;;;;;;;;;13.50;99.90;;;;;;5039935;28;19975;-62
2022/10/01 05:19:57;;;;;;;;;;;13.50;99.90;;;;;;5039143;28;19909;-60
2022/10/01 05:22:23;;;;;;;;;;;13.50;99.90;;;;;;5039710;28;19992;-63
2022/10/01 05:24:49;;;;;;;;;;;13.50;99.90;;;;;;5039054;28;19913;-61
2022/10/01 05:27:14;;;;;;;;;;;13.60;99.90;;;;;;5039996;28;20005;-61
2022/10/01 05:29:41;;;;;;;;;;;13.60;99.90;;;;;;5039608;28;19913;-62
2022/10/01 05:32:07;;;;;;;;;;;13.50;99.90;;;;;;5039681;28;19913;-63
2022/10/01 05:34:33;;;;;;;;;;;13.60;99.90;;;;;;5022188;28;19956;-63
2022/10/01 05:36:58;;;;;;;;;;;13.60;99.90;;;;;;5039424;28;19967;-63
2022/10/01 05:39:24;;;;;;;;;;;13.70;99.90;;;;;;5039887;28;20003;-64
2022/10/01 05:41:50;;;;;;;;;;;13.80;99.90;;;;;;5039484;28;20232;-63
2022/10/01 05:44:15;;;;;;;;;;;13.90;99.90;;;;;;5038739;28;19916;-65
2022/10/01 05:46:42;;;;;;;;;;;13.90;99.90;;;;;;5039364;28;19928;-66
2022/10/01 05:49:09;;;;;;;;;;;14.00;99.90;;;;;;5039234;28;19963;-64
2022/10/01 05:51:35;;;;;;;;;;;14.10;99.90;;;;;;5038568;28;20271;-64
2022/10/01 05:54:01;;;;;;;;;;;14.10;99.90;;;;;;5039282;28;19952;-62
2022/10/01 05:56:27;;;;;;;;;;;14.20;99.90;;;;;;5039141;28;19921;-63
2022/10/01 05:58:52;;;;;;;;;;;14.20;99.90;;;;;;5039483;28;20158;-63
2022/10/01 06:01:18;;;;;;;;;;;14.00;99.90;;;;;;5039140;28;19909;-69
2022/10/01 06:03:44;;;;;;;;;;;14.10;99.90;;;;;;5038326;28;19913;-70
2022/10/01 06:06:09;;;;;;;;;;;14.30;99.90;;;;;;5039001;28;19924;-68
2022/10/01 06:08:36;;;;;;;;;;;14.40;99.90;;;;;;5038007;28;19963;-64
2022/10/01 06:11:02;;;;;;;;;;;14.30;99.90;;;;;;5038130;28;19909;-61
2022/10/01 06:13:29;;;;;;;;;;;14.10;99.90;;;;;;5038842;28;20273;-63
2022/10/01 06:15:54;;;;;;;;;;;13.90;99.90;;;;;;5038641;28;19919;-62
2022/10/01 06:18:20;;;;;;;;;;;13.90;99.90;;;;;;5038983;28;19917;-62
2022/10/01 06:20:45;;;;;;;;;;;13.90;99.90;;;;;;5038068;28;20296;-61
2022/10/01 06:23:12;;;;;;;;;;;13.90;99.90;;;;;;5038717;28;19909;-62
2022/10/01 06:25:41;;;;;;;;;;;13.90;99.90;;;;;;5037861;28;19913;-61
2022/10/01 06:28:08;;;;;;;;;;;13.90;99.90;;;;;;5039082;28;19917;-61
2022/10/01 06:30:35;;;;;;;;;;;13.90;99.90;;;;;;5037791;28;20269;-62
2022/10/01 06:33:02;;;;;;;;;;;14.00;99.90;;;;;;5038235;28;19909;-60
2022/10/01 06:35:28;;;;;;;;;;;14.00;99.90;;;;;;5038243;28;20007;-61
2022/10/01 06:37:54;;;;;;;;;;;14.00;99.90;;;;;;5038439;28;20193;-60
2022/10/01 06:40:19;;;;;;;;;;;14.00;99.90;;;;;;5038257;28;19909;-62
2022/10/01 06:42:49;;;;;;;;;;;14.10;99.90;;;;;;5038145;28;19936;-61
2022/10/01 06:45:15;;;;;;;;;;;14.00;99.90;;;;;;5038200;28;20285;-61
2022/10/01 06:47:41;;;;;;;;;;;13.90;99.90;;;;;;5037990;28;19917;-61
2022/10/01 06:50:06;;;;;;;;;;;13.90;99.90;;;;;;5038168;28;19924;-62
2022/10/01 06:52:47;;;;;;;;;;;13.90;99.90;;;;;;5038318;28;20003;-61
2022/10/01 06:55:14;;;;;;;;;;;13.90;99.90;;;;;;5038253;28;19917;-62
2022/10/01 06:57:39;;;;;;;;;;;13.90;99.90;;;;;;5037394;28;19915;-60
2022/10/01 07:00:05;;;;;;;;;;;14.00;99.90;;;;;;5037990;28;20007;-61
2022/10/01 07:02:31;;;;;;;;;;;14.00;99.90;;;;;;5038367;28;19913;-61
2022/10/01 07:05:00;;;;;;;;;;;14.10;99.90;;;;;;5020706;28;20265;-65
2022/10/01 07:07:30;;;;;;;;;;;14.40;99.90;;;;;;5037905;28;20073;-63
2022/10/01 07:09:56;;;;;;;;;;;14.60;99.90;;;;;;5037131;28;19913;-62
2022/10/01 07:12:22;;;;;;;;;;;14.70;99.90;;;;;;5038156;28;20276;-66
2022/10/01 07:14:47;;;;;;;;;;;14.80;99.90;;;;;;5037099;28;19936;-67
2022/10/01 07:17:13;;;;;;;;;;;14.90;99.90;;;;;;5037022;28;19924;-62
2022/10/01 07:19:39;;;;;;;;;;;14.90;99.90;;;;;;5037666;28;19905;-63
2022/10/01 07:22:04;;;;;;;;;;;15.00;99.90;;;;;;5037627;28;19919;-64
2022/10/01 07:24:30;;;;;;;;;;;15.10;99.90;;;;;;5037596;28;19923;-69
2022/10/01 07:26:56;;;;;;;;;;;15.00;99.90;;;;;;5037651;28;19909;-64
2022/10/01 07:29:22;;;;;;;;;;;15.00;99.90;;;;;;5037528;28;20024;-60
2022/10/01 07:31:49;;;;;;;;;;;15.00;99.90;;;;;;5036791;28;19909;-60
2022/10/01 07:34:15;;;;;;;;;;;15.10;99.90;;;;;;5037480;28;19916;-63
2022/10/01 07:36:44;;;;;;;;;;;15.00;99.90;;;;;;5037397;28;19917;-67
2022/10/01 07:39:13;;;;;;;;;;;15.00;99.90;;;;;;5036635;28;19948;-62
2022/10/01 07:41:39;;;;;;;;;;;15.10;99.90;;;;;;5037723;28;19913;-68
2022/10/01 07:44:04;;;;;;;;;;;15.10;99.90;;;;;;5037357;28;20039;-68
2022/10/01 07:46:30;;;;;;;;;;;15.10;99.90;;;;;;5037263;28;20246;-60
2022/10/01 07:48:56;;;;;;;;;;;15.20;99.90;;;;;;5037016;28;20189;-63
2022/10/01 07:51:23;;;;;;;;;;;15.30;99.90;;;;;;5037634;28;19924;-62
2022/10/01 07:53:49;;;;;;;;;;;15.50;99.90;;;;;;5036271;28;19932;-66
2022/10/01 07:56:15;;;;;;;;;;;15.70;99.90;;;;;;5037198;28;19964;-68
2022/10/01 07:58:42;;;;;;;;;;;15.60;99.90;;;;;;5036459;28;19916;-62
2022/10/01 08:01:08;;;;;;;;;;;15.70;99.90;;;;;;5020134;28;19909;-68
2022/10/01 08:03:34;;;;;;;;;;;15.80;99.90;;;;;;5036349;28;19913;-68
2022/10/01 08:06:02;;;;;;;;;;;15.80;99.90;;;;;;5037311;28;19909;-69
2022/10/01 08:08:29;;;;;;;;;;;15.80;99.90;;;;;;5020095;28;19920;-68
2022/10/01 08:10:55;;;;;;;;;;;15.90;99.90;;;;;;5037095;28;19909;-68
2022/10/01 08:13:23;;;;;;;;;;;16.00;99.90;;;;;;5036250;28;20329;-68
2022/10/01 08:15:52;;;;;;;;;;;16.10;99.90;;;;;;5036311;28;19913;-62
2022/10/01 08:18:18;;;;;;;;;;;16.10;99.90;;;;;;5036960;28;19909;-67
2022/10/01 08:20:44;;;;;;;;;;;16.10;99.90;;;;;;5036984;28;20003;-59
2022/10/01 08:23:10;;;;;;;;;;;16.10;99.90;;;;;;5036881;28;20253;-69
2022/10/01 08:25:36;;;;;;;;;;;16.30;99.90;;;;;;5036134;28;19924;-67
2022/10/01 08:28:02;;;;;;;;;;;16.40;99.90;;;;;;5037039;28;19952;-70
2022/10/01 08:30:28;;;;;;;;;;;16.40;99.90;;;;;;5036242;28;19917;-68
2022/10/01 08:32:55;;;;;;;;;;;16.60;99.90;;;;;;5036966;28;19909;-68
2022/10/01 08:35:21;;;;;;;;;;;16.90;99.90;;;;;;5036718;28;19975;-61
2022/10/01 08:37:46;;;;;;;;;;;17.00;99.90;;;;;;5036109;28;19960;-67
2022/10/01 08:40:12;;;;;;;;;;;17.20;99.90;;;;;;5036679;28;19921;-64
2022/10/01 08:42:42;;;;;;;;;;;17.10;99.90;;;;;;5037285;28;19920;-65
2022/10/01 08:45:11;;;;;;;;;;;17.10;99.90;;;;;;5023086;28;19909;-65
2022/10/01 08:47:39;;;;;;;;;;;17.10;99.90;;;;;;5040167;28;19944;-61
2022/10/01 08:50:24;;;;;;;;;;;17.00;99.90;;;;;;5040332;28;19963;-66
2022/10/01 08:52:53;;;;;;;;;;;17.10;99.90;;;;;;5032919;28;19909;-66
2022/10/01 08:55:20;;;;;;;;;;;17.10;99.90;;;;;;5040183;28;20020;-65
2022/10/01 08:57:57;;;;;;;;;;;17.10;99.90;;;;;;5040105;28;19913;-68
2022/10/01 09:00:23;;;;;;;;;;;17.20;99.90;;;;;;5040098;28;19909;-58
2022/10/01 09:02:51;;;;;;;;;;;17.30;99.90;;;;;;5040437;28;20375;-63
2022/10/01 09:05:17;;;;;;;;;;;17.30;99.90;;;;;;5040096;28;19909;-66
2022/10/01 09:08:03;;;;;;;;;;;17.50;99.90;;;;;;5040122;28;20007;-62
2022/10/01 09:10:31;;;;;;;;;;;17.60;99.90;;;;;;5039300;28;19909;-69
2022/10/01 09:12:57;;;;;;;;;;;17.50;99.90;;;;;;5039912;28;19905;-63
2022/10/01 09:15:46;;;;;;;;;;;17.60;99.90;;;;;;5039765;28;19924;-59
2022/10/01 09:18:17;;;;;;;;;;;17.50;99.90;;;;;;5034340;28;20032;-59
2022/10/01 09:20:45;;;;;;;;;;;17.50;99.90;;;;;;5039772;28;19948;-62
2022/10/01 09:23:17;;;;;;;;;;;17.70;99.90;;;;;;5039760;28;19924;-65
2022/10/01 09:25:44;;;;;;;;;;;17.70;99.90;;;;;;5038994;28;19920;-61
2022/10/01 09:28:21;;;;;;;;;;;17.70;99.90;;;;;;5039716;28;19912;-63
2022/10/01 09:30:55;;;;;;;;;;;17.50;99.90;;;;;;5039598;28;19920;-59
2022/10/01 09:33:23;;;;;;;;;;;17.50;99.90;;;;;;5039556;28;19909;-58
2022/10/01 09:35:53;;;;;;;;;;;17.60;99.90;;;;;;5039460;28;20011;-58
2022/10/01 09:38:28;;;;;;;;;;;17.50;99.90;;;;;;5039518;28;19909;-64
2022/10/01 09:40:54;;;;;;;;;;;17.50;99.90;;;;;;5039466;28;19913;-65
2022/10/01 09:43:22;;;;;;;;;;;17.40;99.90;;;;;;5039792;28;19909;-67
2022/10/01 09:45:49;;;;;;;;;;;17.30;99.90;;;;;;5039441;28;19920;-59
2022/10/01 09:48:23;;;;;;;;;;;17.20;99.90;;;;;;5039242;28;19964;-62
2022/10/01 09:50:57;;;;;;;;;;;17.30;99.90;;;;;;5039283;28;19916;-59
2022/10/01 09:53:34;;;;;;;;;;;17.20;99.90;;;;;;5039263;28;19909;-58
2022/10/01 09:56:07;;;;;;;;;;;17.50;99.90;;;;;;5038307;28;20196;-58
2022/10/01 09:58:33;;;;;;;;;;;17.40;99.90;;;;;;5039261;28;20003;-59
2022/10/01 10:01:00;;;;;;;;;;;17.40;99.90;;;;;;5039163;28;19905;-58
2022/10/01 10:03:29;;;;;;;;;;;17.50;99.90;;;;;;5038345;28;20000;-61
2022/10/01 10:05:55;;;;;;;;;;;17.60;99.90;;;;;;5038387;28;19932;-62
2022/10/01 10:08:22;;;;;;;;;;;17.60;99.90;;;;;;5038955;28;20166;-62
2022/10/01 10:10:49;;;;;;;;;;;17.60;99.90;;;;;;5038884;28;19909;-63
2022/10/01 10:13:30;;;;;;;;;;;17.60;99.90;;;;;;5038087;28;19909;-60
2022/10/01 10:15:57;;;;;;;;;;;18.00;99.90;;;;;;5038754;28;19921;-60
2022/10/01 10:18:28;;;;;;;;;;;18.30;99.90;;;;;;5038738;28;19925;-60
2022/10/01 10:20:54;;;;;;;;;;;18.60;99.90;;;;;;5038705;28;20249;-64
2022/10/01 10:23:21;;;;;;;;;;;19.10;99.90;;;;;;5038319;28;19951;-59
2022/10/01 10:26:01;;;;;;;;;;;19.00;99.90;;;;;;5037958;28;20003;-56
2022/10/01 10:28:44;;;;;;;;;;;18.80;99.90;;;;;;5038241;28;19916;-59
2022/10/01 10:31:15;;;;;;;;;;;18.60;99.90;;;;;;5038524;28;19920;-61
2022/10/01 10:33:50;;;;;;;;;;;18.40;99.90;;;;;;5038448;28;19909;-59
2022/10/01 10:36:18;;;;;;;;;;;18.70;99.90;;;;;;5038492;28;19967;-58
2022/10/01 10:38:48;;;;;;;;;;;19.00;99.90;;;;;;5038403;28;19984;-64
2022/10/01 10:41:18;;;;;;;;;;;19.60;99.90;;;;;;5038226;28;19924;-64
2022/10/01 10:43:47;;;;;;;;;;;19.70;99.90;;;;;;5037464;28;20204;-62
2022/10/01 10:46:20;;;;;;;;;;;19.80;99.90;;;;;;5038775;28;19909;-58
2022/10/01 10:48:48;;;;;;;;;;;20.00;99.90;;;;;;5037435;28;20205;-63
2022/10/01 10:51:13;;;;;;;;;;;20.10;99.90;;;;;;5038127;28;19909;-61
2022/10/01 10:53:43;;;;;;;;;;;20.30;99.90;;;;;;5036972;28;20365;-61
2022/10/01 10:56:16;;;;;;;;;;;20.50;99.90;;;;;;5038601;28;20324;-65
2022/10/01 10:58:44;;;;;;;;;;;20.40;99.90;;;;;;5038060;28;19909;-64
2022/10/01 11:01:16;;;;;;;;;;;20.20;99.90;;;;;;5038546;28;19921;-63
2022/10/01 11:03:45;;;;;;;;;;;20.30;99.90;;;;;;5037329;28;19992;-60
2022/10/01 11:06:13;;;;;;;;;;;20.80;99.90;;;;;;5037640;28;19909;-60
2022/10/01 11:08:41;;;;;;;;;;;21.20;99.90;;;;;;5036996;28;19916;-61
2022/10/01 11:11:20;;;;;;;;;;;20.80;99.90;;;;;;5037733;28;20180;-62
2022/10/01 11:13:58;;;;;;;;;;;20.80;99.90;;;;;;5037763;28;19909;-63
2022/10/01 11:16:32;;;;;;;;;;;21.00;99.90;;;;;;5037684;28;20281;-67
2022/10/01 11:19:00;;;;;;;;;;;21.10;99.90;;;;;;5020577;28;19909;-60
2022/10/01 11:21:45;;;;;;;;;;;21.20;99.90;;;;;;5020554;28;19908;-62
2022/10/01 11:24:18;;;;;;;;;;;21.30;99.90;;;;;;5053505;28;19932;-65
2022/10/01 11:26:53;;;;;;;;;;;21.40;99.90;;;;;;5037961;28;19909;-61
2022/10/01 11:29:18;;;;;;;;;;;21.60;99.90;;;;;;5037478;28;20324;-60
2022/10/01 11:31:53;;;;;;;;;;;21.90;99.90;;;;;;5036741;28;20006;-64
2022/10/01 11:34:37;;;;;;;;;;;22.10;99.90;;;;;;5037516;28;19909;-63
2022/10/01 11:37:03;;;;;;;;;;;21.60;99.90;;;;;;5037896;28;19913;-65
2022/10/01 11:39:31;;;;;;;;;;;21.70;99.90;;;;;;5037299;28;19909;-61
2022/10/01 11:42:08;;;;;;;;;;;21.50;99.90;;;;;;5037340;28;19966;-65
2022/10/01 11:44:36;;;;;;;;;;;21.70;99.90;;;;;;5037357;28;20004;-64
2022/10/01 11:47:01;;;;;;;;;;;21.60;99.90;;;;;;5037079;28;20236;-60
2022/10/01 11:49:30;;;;;;;;;;;21.20;99.90;;;;;;5036532;28;19913;-59
2022/10/01 11:52:05;;;;;;;;;;;21.30;99.90;;;;;;5037214;28;19913;-60
2022/10/01 11:54:33;;;;;;;;;;;21.50;99.90;;;;;;5036518;28;20196;-59
2022/10/01 11:59:54;;;;;;;;;;;21.30;99.90;;;;;;5037178;28;19913;-64
2022/10/01 12:02:24;;;;;;;;;;;21.20;99.90;;;;;;5037239;28;19909;-64
2022/10/01 12:04:58;;;;;;;;;;;21.30;99.90;;;;;;5037142;28;20277;-65
2022/10/01 12:07:37;;;;;;;;;;;21.30;99.90;;;;;;5037122;28;20184;-66
2022/10/01 12:10:21;;;;;;;;;;;21.20;99.90;;;;;;5037069;28;19999;-62
2022/10/01 12:12:58;;;;;;;;;;;21.30;99.90;;;;;;5052911;28;20353;-62
2022/10/01 12:15:40;;;;;;;;;;;21.30;99.90;;;;;;5036100;28;20317;-65
2022/10/01 12:18:17;;;;;;;;;;;21.50;99.90;;;;;;5054319;28;19909;-64
2022/10/01 12:20:44;;;;;;;;;;;21.50;99.90;;;;;;5056945;28;19909;-65
2022/10/01 12:23:13;;;;;;;;;;;21.60;99.90;;;;;;5041520;28;19909;-64
2022/10/01 12:25:45;;;;;;;;;;;21.60;99.90;;;;;;5040972;28;20007;-64
2022/10/01 12:28:12;;;;;;;;;;;22.00;99.90;;;;;;5040876;28;19909;-64
2022/10/01 12:31:11;;;;;;;;;;;22.70;99.90;;;;;;5040897;28;19909;-68
2022/10/01 12:34:12;;;;;;;;;;;22.90;99.90;;;;;;5018814;28;19920;-62
2022/10/01 12:36:47;;;;;;;;;;;22.70;99.90;;;;;;5000085;28;20201;-58
2022/10/01 12:39:22;;;;;;;;;;;22.60;99.90;;;;;;5034986;28;19916;-61
2022/10/01 12:42:06;;;;;;;;;;;22.70;99.90;;;;;;5040649;28;19909;-60
2022/10/01 12:44:43;;;;;;;;;;;22.60;99.90;;;;;;5040614;28;19915;-64
2022/10/01 12:47:27;;;;;;;;;;;22.30;99.90;;;;;;5040471;28;19921;-64
2022/10/01 12:49:53;;;;;;;;;;;22.30;99.90;;;;;;5040571;28;20000;-63
2022/10/01 12:52:18;;;;;;;;;;;22.30;99.90;;;;;;5040444;28;20067;-61
2022/10/01 12:55:04;;;;;;;;;;;22.00;99.90;;;;;;5056144;28;19909;-64
2022/10/01 12:57:37;;;;;;;;;;;21.60;99.90;;;;;;5039689;28;19909;-64
2022/10/01 13:00:15;;;;;;;;;;;21.60;99.90;;;;;;5040332;28;19920;-61
2022/10/01 13:02:59;;;;;;;;;;;21.50;99.90;;;;;;5023003;28;19920;-61
2022/10/01 13:05:31;;;;;;;;;;;20.60;99.90;;;;;;5040171;28;20269;-60
2022/10/01 13:07:57;;;;;;;;;;;20.50;99.90;;;;;;5040193;28;19913;-59
2022/10/01 13:10:34;;;;;;;;;;;20.20;99.90;;;;;;5040066;28;19927;-60
2022/10/01 13:13:11;;;;;;;;;;;20.00;99.90;;;;;;5039375;28;20032;-61
2022/10/01 13:15:39;;;;;;;;;;;20.00;99.90;;;;;;5039965;28;19916;-63
2022/10/01 13:18:23;;;;;;;;;;;19.80;99.90;;;;;;5039972;28;19909;-62
2022/10/01 13:20:56;;;;;;;;;;;19.60;99.90;;;;;;5039223;28;19909;-62
2022/10/01 13:23:42;;;;;;;;;;;19.50;99.90;;;;;;5039900;28;19916;-63
2022/10/01 13:26:12;;;;;;;;;;;19.30;99.90;;;;;;5040536;28;20197;-64
2022/10/01 13:28:40;;;;;;;;;;;19.30;99.90;;;;;;5039758;28;20308;-60
2022/10/01 13:31:10;;;;;;;;;;;19.30;99.90;;;;;;5039767;28;19920;-64
2022/10/01 13:33:36;;;;;;;;;;;19.40;99.90;;;;;;5038935;28;20091;-63
2022/10/01 13:36:03;;;;;;;;;;;20.10;99.90;;;;;;5038957;28;20162;-62
2022/10/01 13:38:29;;;;;;;;;;;20.60;99.90;;;;;;5039590;28;19933;-61
2022/10/01 13:40:56;;;;;;;;;;;21.20;99.90;;;;;;5039484;28;19920;-61
2022/10/01 13:43:23;;;;;;;;;;;21.50;99.90;;;;;;5039517;28;20007;-60
2022/10/01 13:45:50;;;;;;;;;;;22.10;99.90;;;;;;5038712;28;20026;-64
2022/10/01 13:48:18;;;;;;;;;;;22.60;99.90;;;;;;5038459;28;20067;-62
2022/10/01 13:51:04;;;;;;;;;;;22.90;99.90;;;;;;5039331;28;20281;-65
2022/10/01 13:53:31;;;;;;;;;;;22.70;99.90;;;;;;5039372;28;19909;-63
2022/10/01 13:55:57;;;;;;;;;;;23.10;99.90;;;;;;5039209;28;19921;-63
2022/10/01 13:58:35;;;;;;;;;;;23.60;99.90;;;;;;5038712;28;20184;-62
2022/10/01 14:01:03;;;;;;;;;;;24.40;99.90;;;;;;5039113;28;19916;-64
2022/10/01 14:03:38;;;;;;;;;;;24.40;99.90;;;;;;5039127;28;19905;-68
2022/10/01 14:06:13;;;;;;;;;;;24.90;99.90;;;;;;5039175;28;19916;-69
2022/10/01 14:08:51;;;;;;;;;;;25.20;99.90;;;;;;5039151;28;19909;-64
2022/10/01 14:17:02;;;;;;;;;;;24.20;99.90;;;;;;5039502;28;19913;-59
2022/10/01 14:19:30;;;;;;;;;;;23.10;99.90;;;;;;5039085;28;19935;-64
2022/10/01 14:21:55;;;;;;;;;;;22.20;99.90;;;;;;5038189;28;19909;-65
2022/10/01 14:24:21;;;;;;;;;;;21.60;99.90;;;;;;5038776;28;19916;-67
2022/10/01 14:26:57;;;;;;;;;;;21.30;99.90;;;;;;5038008;28;20171;-63
2022/10/01 14:29:43;;;;;;;;;;;21.20;99.90;;;;;;5038644;28;19952;-63
2022/10/01 14:32:36;;;;;;;;;;;20.80;99.90;;;;;;5038667;28;19908;-67
2022/10/01 14:35:07;;;;;;;;;;;20.60;99.90;;;;;;5022451;28;19908;-67
2022/10/01 14:37:36;;;;;;;;;;;21.80;99.90;;;;;;5038560;28;20169;-67